createdAt,value
2022-12-29T00:00:01.408Z,1008.29
2022-12-29T00:01:01.175Z,1008.25
2022-12-29T00:02:02.006Z,1008.29
2022-12-29T00:03:02.317Z,1008.27
2022-12-29T00:04:01.435Z,1008.25
2022-12-29T00:05:02.576Z,1008.16
2022-12-29T00:06:01.127Z,1008.24
2022-12-29T00:07:01.224Z,1008.2
2022-12-29T00:08:01.156Z,1008.24
2022-12-29T00:09:01.188Z,1008.19
2022-12-29T00:10:01.300Z,1008.21
2022-12-29T00:11:01.206Z,1008.25
2022-12-29T00:12:01.168Z,1008.18
2022-12-29T00:13:03.209Z,1008.16
2022-12-29T00:14:02.207Z,1008.14
2022-12-29T00:15:01.101Z,1008.15
2022-12-29T00:16:01.186Z,1008.12
2022-12-29T00:17:01.093Z,1008.13
2022-12-29T00:18:01.109Z,1008.07
2022-12-29T00:19:01.068Z,1008.08
2022-12-29T00:20:02.033Z,1008.03
2022-12-29T00:21:01.452Z,1007.98
2022-12-29T00:22:01.467Z,1008.02
2022-12-29T00:23:01.191Z,1008.02
2022-12-29T00:24:01.976Z,1008
2022-12-29T00:25:01.979Z,1007.95
2022-12-29T00:26:01.159Z,1007.91
2022-12-29T00:27:01.150Z,1007.95
2022-12-29T00:28:06.555Z,1007.91
2022-12-29T00:29:01.067Z,1007.92
2022-12-29T00:30:00.754Z,1007.91
2022-12-29T00:31:00.468Z,1007.89
2022-12-29T00:32:00.273Z,1007.96
2022-12-29T00:32:59.950Z,1007.98
2022-12-29T00:33:59.556Z,1008.01
2022-12-29T00:35:01.772Z,1007.93
2022-12-29T00:36:01.787Z,1007.92
2022-12-29T00:37:02.041Z,1007.95
2022-12-29T00:38:02.130Z,1007.96
2022-12-29T00:39:01.151Z,1007.9
2022-12-29T00:40:01.906Z,1007.88
2022-12-29T00:41:01.151Z,1007.88
2022-12-29T00:42:01.150Z,1007.9
2022-12-29T00:43:02.966Z,1007.84
2022-12-29T00:44:01.435Z,1007.81
2022-12-29T00:45:01.671Z,1007.75
2022-12-29T00:46:01.756Z,1007.76
2022-12-29T00:47:01.506Z,1007.73
2022-12-29T00:48:01.794Z,1007.75
2022-12-29T00:49:01.759Z,1007.71
2022-12-29T00:50:02.008Z,1007.66
2022-12-29T00:51:01.792Z,1007.67
2022-12-29T00:52:01.105Z,1007.64
2022-12-29T00:53:01.095Z,1007.68
2022-12-29T00:54:01.128Z,1007.64
2022-12-29T00:55:04.240Z,1007.55
2022-12-29T00:56:02.315Z,1007.52
2022-12-29T00:57:01.411Z,1007.52
2022-12-29T00:58:01.412Z,1007.5
2022-12-29T00:59:02.460Z,1007.52
2022-12-29T01:00:02.084Z,1007.51
2022-12-29T01:01:03.324Z,1007.43
2022-12-29T01:02:02.684Z,1007.45
2022-12-29T01:03:01.496Z,1007.38
2022-12-29T01:04:04.048Z,1007.4
2022-12-29T01:05:01.273Z,1007.35
2022-12-29T01:06:06.432Z,1007.4
2022-12-29T01:07:01.054Z,1007.36
2022-12-29T01:08:01.117Z,1007.35
2022-12-29T01:09:01.110Z,1007.28
2022-12-29T01:10:02.061Z,1007.31
2022-12-29T01:11:08.980Z,1007.28
2022-12-29T01:12:01.923Z,1007.26
2022-12-29T01:13:01.155Z,1007.31
2022-12-29T01:14:01.180Z,1007.29
2022-12-29T01:15:01.869Z,1007.35
2022-12-29T01:16:11.354Z,1007.32
2022-12-29T01:17:01.551Z,1007.33
2022-12-29T01:18:02.141Z,1007.35
2022-12-29T01:19:01.761Z,1007.38
2022-12-29T01:20:01.971Z,1007.41
2022-12-29T01:21:14.710Z,1007.4
2022-12-29T01:22:01.264Z,1007.37
2022-12-29T01:23:02.626Z,1007.38
2022-12-29T01:24:01.971Z,1007.43
2022-12-29T01:25:01.420Z,1007.4
2022-12-29T01:26:17.125Z,1007.37
2022-12-29T01:27:02.156Z,1007.43
2022-12-29T01:28:01.174Z,1007.4
2022-12-29T01:29:01.105Z,1007.43
2022-12-29T01:30:01.162Z,1007.45
2022-12-29T01:31:01.139Z,1007.45
2022-12-29T01:32:01.649Z,1007.44
2022-12-29T01:33:01.183Z,1007.38
2022-12-29T01:34:02.181Z,1007.35
2022-12-29T01:35:01.864Z,1007.34
2022-12-29T01:36:01.074Z,1007.4
2022-12-29T01:37:01.088Z,1007.34
2022-12-29T01:38:00.877Z,1007.33
2022-12-29T01:39:00.620Z,1007.3
2022-12-29T01:40:00.317Z,1007.35
2022-12-29T01:40:59.931Z,1007.27
2022-12-29T01:41:59.589Z,1007.27
2022-12-29T01:43:01.813Z,1007.21
2022-12-29T01:44:01.336Z,1007.24
2022-12-29T01:45:02.507Z,1007.29
2022-12-29T01:46:01.589Z,1007.25
2022-12-29T01:47:01.196Z,1007.29
2022-12-29T01:48:01.204Z,1007.23
2022-12-29T01:49:02.391Z,1007.2
2022-12-29T01:50:01.219Z,1007.25
2022-12-29T01:51:01.199Z,1007.29
2022-12-29T01:52:01.384Z,1007.18
2022-12-29T01:53:01.417Z,1007.23
2022-12-29T01:54:01.208Z,1007.2
2022-12-29T01:55:04.052Z,1007.21
2022-12-29T01:56:01.986Z,1007.2
2022-12-29T01:57:01.104Z,1007.23
2022-12-29T01:58:03.925Z,1007.15
2022-12-29T01:59:01.160Z,1007.24
2022-12-29T02:00:01.279Z,1007.19
2022-12-29T02:01:01.012Z,1007.16
2022-12-29T02:02:01.098Z,1007.19
2022-12-29T02:03:01.989Z,1007.11
2022-12-29T02:04:01.149Z,1007.11
2022-12-29T02:05:04.682Z,1007.13
2022-12-29T02:06:02.779Z,1007.13
2022-12-29T02:07:01.078Z,1007.13
2022-12-29T02:08:01.077Z,1007.14
2022-12-29T02:09:00.999Z,1007.17
2022-12-29T02:10:01.186Z,1007.08
2022-12-29T02:11:01.292Z,1007.01
2022-12-29T02:12:01.517Z,1007.11
2022-12-29T02:13:02.654Z,1007.15
2022-12-29T02:14:03.859Z,1007.1
2022-12-29T02:15:01.393Z,1007.05
2022-12-29T02:16:01.218Z,1007.04
2022-12-29T02:17:01.130Z,1007.04
2022-12-29T02:18:01.165Z,1007.05
2022-12-29T02:19:01.555Z,1007
2022-12-29T02:20:04.122Z,1007.05
2022-12-29T02:21:01.220Z,1007.01
2022-12-29T02:22:01.243Z,1007.07
2022-12-29T02:23:01.143Z,1007.07
2022-12-29T02:24:01.799Z,1007.03
2022-12-29T02:25:00.823Z,1006.98
2022-12-29T02:26:00.574Z,1007.01
2022-12-29T02:27:00.274Z,1007.05
2022-12-29T02:27:59.974Z,1007.01
2022-12-29T02:28:59.656Z,1007.02
2022-12-29T02:30:01.796Z,1006.98
2022-12-29T02:31:01.050Z,1007.01
2022-12-29T02:32:01.199Z,1006.93
2022-12-29T02:33:01.138Z,1007
2022-12-29T02:34:01.320Z,1006.96
2022-12-29T02:35:01.775Z,1006.93
2022-12-29T02:36:02.375Z,1007.01
2022-12-29T02:37:02.671Z,1006.88
2022-12-29T02:38:01.403Z,1006.96
2022-12-29T02:39:01.060Z,1006.9
2022-12-29T02:40:01.752Z,1006.94
2022-12-29T02:41:01.067Z,1006.95
2022-12-29T02:42:05.227Z,1006.89
2022-12-29T02:43:01.179Z,1006.92
2022-12-29T02:44:01.478Z,1006.93
2022-12-29T02:45:04.490Z,1006.9
2022-12-29T02:46:01.273Z,1006.9
2022-12-29T02:47:08.540Z,1006.92
2022-12-29T02:48:01.134Z,1006.82
2022-12-29T02:49:01.140Z,1006.89
2022-12-29T02:50:02.358Z,1006.85
2022-12-29T02:51:01.138Z,1006.9
2022-12-29T02:52:11.044Z,1006.87
2022-12-29T02:53:01.543Z,1006.89
2022-12-29T02:54:01.154Z,1006.87
2022-12-29T02:55:01.781Z,1006.84
2022-12-29T02:56:01.058Z,1006.87
2022-12-29T02:57:14.309Z,1006.89
2022-12-29T02:58:01.768Z,1006.87
2022-12-29T02:59:01.992Z,1006.85
2022-12-29T03:00:01.430Z,1006.87
2022-12-29T03:01:01.258Z,1006.9
2022-12-29T03:02:16.848Z,1006.84
2022-12-29T03:03:02.671Z,1006.88
2022-12-29T03:04:01.919Z,1006.9
2022-12-29T03:05:01.532Z,1006.91
2022-12-29T03:06:01.274Z,1006.9
2022-12-29T03:07:01.144Z,1006.85
2022-12-29T03:08:01.145Z,1006.9
2022-12-29T03:09:02.485Z,1006.89
2022-12-29T03:10:01.873Z,1006.9
2022-12-29T03:11:02.339Z,1006.86
2022-12-29T03:12:01.252Z,1006.91
2022-12-29T03:13:02.007Z,1006.85
2022-12-29T03:14:01.100Z,1006.84
2022-12-29T03:15:04.269Z,1006.86
2022-12-29T03:16:01.258Z,1006.84
2022-12-29T03:17:01.397Z,1006.8
2022-12-29T03:18:01.110Z,1006.84
2022-12-29T03:19:03.860Z,1006.9
2022-12-29T03:20:08.735Z,1006.85
2022-12-29T03:21:01.133Z,1006.89
2022-12-29T03:22:01.153Z,1006.9
2022-12-29T03:23:01.127Z,1006.82
2022-12-29T03:24:01.160Z,1006.87
2022-12-29T03:25:01.366Z,1006.91
2022-12-29T03:26:01.546Z,1006.95
2022-12-29T03:27:01.185Z,1006.92
2022-12-29T03:28:01.063Z,1006.95
2022-12-29T03:29:01.065Z,1006.99
2022-12-29T03:30:01.088Z,1007.02
2022-12-29T03:31:01.236Z,1006.94
2022-12-29T03:32:01.090Z,1006.98
2022-12-29T03:33:01.527Z,1006.9
2022-12-29T03:34:00.911Z,1006.82
2022-12-29T03:35:01.109Z,1006.78
2022-12-29T03:36:01.110Z,1006.79
2022-12-29T03:37:01.143Z,1006.8
2022-12-29T03:38:01.132Z,1006.68
2022-12-29T03:39:01.154Z,1006.69
2022-12-29T03:40:01.144Z,1006.7
2022-12-29T03:41:01.519Z,1006.65
2022-12-29T03:42:01.176Z,1006.7
2022-12-29T03:43:01.266Z,1006.62
2022-12-29T03:44:01.167Z,1006.68
2022-12-29T03:45:01.791Z,1006.6
2022-12-29T03:46:04.669Z,1006.6
2022-12-29T03:47:01.085Z,1006.56
2022-12-29T03:48:01.462Z,1006.62
2022-12-29T03:49:01.488Z,1006.57
2022-12-29T03:50:01.134Z,1006.52
2022-12-29T03:51:01.227Z,1006.51
2022-12-29T03:52:01.129Z,1006.55
2022-12-29T03:53:01.045Z,1006.48
2022-12-29T03:54:01.520Z,1006.44
2022-12-29T03:55:03.918Z,1006.46
2022-12-29T03:56:01.142Z,1006.45
2022-12-29T03:57:01.163Z,1006.39
2022-12-29T03:58:01.153Z,1006.39
2022-12-29T03:59:01.167Z,1006.41
2022-12-29T04:00:01.385Z,1006.44
2022-12-29T04:01:01.522Z,1006.43
2022-12-29T04:02:01.557Z,1006.39
2022-12-29T04:03:01.291Z,1006.37
2022-12-29T04:04:02.300Z,1006.46
2022-12-29T04:05:01.055Z,1006.43
2022-12-29T04:06:01.103Z,1006.41
2022-12-29T04:07:01.268Z,1006.33
2022-12-29T04:08:01.103Z,1006.29
2022-12-29T04:09:01.049Z,1006.28
2022-12-29T04:10:02.170Z,1006.29
2022-12-29T04:11:01.741Z,1006.31
2022-12-29T04:12:01.577Z,1006.3
2022-12-29T04:13:03.204Z,1006.29
2022-12-29T04:14:02.552Z,1006.23
2022-12-29T04:15:01.892Z,1006.28
2022-12-29T04:16:01.318Z,1006.3
2022-12-29T04:17:01.080Z,1006.36
2022-12-29T04:18:04.644Z,1006.36
2022-12-29T04:19:01.098Z,1006.37
2022-12-29T04:20:01.182Z,1006.37
2022-12-29T04:21:00.993Z,1006.33
2022-12-29T04:22:00.763Z,1006.31
2022-12-29T04:23:07.573Z,1006.31
2022-12-29T04:24:02.513Z,1006.35
2022-12-29T04:25:01.216Z,1006.27
2022-12-29T04:26:01.309Z,1006.34
2022-12-29T04:27:02.607Z,1006.35
2022-12-29T04:28:09.499Z,1006.33
2022-12-29T04:29:01.759Z,1006.39
2022-12-29T04:30:02.026Z,1006.38
2022-12-29T04:31:02.691Z,1006.41
2022-12-29T04:32:01.171Z,1006.38
2022-12-29T04:33:13.347Z,1006.35
2022-12-29T04:34:01.502Z,1006.39
2022-12-29T04:35:01.972Z,1006.44
2022-12-29T04:36:01.137Z,1006.4
2022-12-29T04:37:01.092Z,1006.38
2022-12-29T04:38:14.038Z,1006.42
2022-12-29T04:39:01.368Z,1006.42
2022-12-29T04:40:02.124Z,1006.39
2022-12-29T04:41:04.134Z,1006.31
2022-12-29T04:42:01.113Z,1006.24
2022-12-29T04:43:01.158Z,1006.25
2022-12-29T04:44:00.726Z,1006.18
2022-12-29T04:45:00.309Z,1006.18
2022-12-29T04:46:00.009Z,1006.17
2022-12-29T04:46:59.740Z,1006.17
2022-12-29T04:48:01.455Z,1006.15
2022-12-29T04:49:01.280Z,1006.2
2022-12-29T04:50:02.145Z,1006.22
2022-12-29T04:51:01.138Z,1006.24
2022-12-29T04:52:01.208Z,1006.22
2022-12-29T04:53:01.117Z,1006.2
2022-12-29T04:54:01.175Z,1006.23
2022-12-29T04:55:01.186Z,1006.21
2022-12-29T04:56:01.390Z,1006.2
2022-12-29T04:57:01.241Z,1006.19
2022-12-29T04:58:01.096Z,1006.17
2022-12-29T04:59:01.162Z,1006.22
2022-12-29T05:00:04.255Z,1006.18
2022-12-29T05:01:01.149Z,1006.23
2022-12-29T05:02:01.327Z,1006.24
2022-12-29T05:03:01.639Z,1006.25
2022-12-29T05:04:02.284Z,1006.21
2022-12-29T05:05:01.413Z,1006.21
2022-12-29T05:06:01.420Z,1006.2
2022-12-29T05:07:01.464Z,1006.2
2022-12-29T05:08:02.518Z,1006.26
2022-12-29T05:09:01.103Z,1006.27
2022-12-29T05:10:01.870Z,1006.24
2022-12-29T05:11:01.091Z,1006.27
2022-12-29T05:12:01.102Z,1006.28
2022-12-29T05:13:01.122Z,1006.28
2022-12-29T05:14:01.663Z,1006.32
2022-12-29T05:15:01.194Z,1006.34
2022-12-29T05:16:02.244Z,1006.31
2022-12-29T05:17:02.977Z,1006.33
2022-12-29T05:18:01.360Z,1006.31
2022-12-29T05:19:01.378Z,1006.28
2022-12-29T05:20:02.759Z,1006.27
2022-12-29T05:21:02.075Z,1006.29
2022-12-29T05:22:01.092Z,1006.31
2022-12-29T05:23:01.080Z,1006.34
2022-12-29T05:24:00.769Z,1006.32
2022-12-29T05:25:00.534Z,1006.34
2022-12-29T05:26:00.170Z,1006.36
2022-12-29T05:26:59.868Z,1006.32
2022-12-29T05:27:59.456Z,1006.39
2022-12-29T05:29:01.210Z,1006.34
2022-12-29T05:30:01.867Z,1006.38
2022-12-29T05:31:01.171Z,1006.37
2022-12-29T05:32:01.148Z,1006.36
2022-12-29T05:33:01.177Z,1006.37
2022-12-29T05:34:00.833Z,1006.38
2022-12-29T05:35:00.897Z,1006.3
2022-12-29T05:36:01.060Z,1006.33
2022-12-29T05:37:01.071Z,1006.36
2022-12-29T05:38:01.081Z,1006.44
2022-12-29T05:39:01.226Z,1006.31
2022-12-29T05:40:01.777Z,1006.33
2022-12-29T05:41:02.145Z,1006.29
2022-12-29T05:42:01.085Z,1006.28
2022-12-29T05:43:01.105Z,1006.29
2022-12-29T05:44:01.120Z,1006.3
2022-12-29T05:45:01.119Z,1006.29
2022-12-29T05:46:01.124Z,1006.32
2022-12-29T05:47:01.213Z,1006.36
2022-12-29T05:48:01.145Z,1006.32
2022-12-29T05:49:01.835Z,1006.3
2022-12-29T05:50:00.935Z,1006.32
2022-12-29T05:51:01.159Z,1006.32
2022-12-29T05:52:01.235Z,1006.3
2022-12-29T05:53:01.103Z,1006.31
2022-12-29T05:54:01.180Z,1006.21
2022-12-29T05:55:01.180Z,1006.27
2022-12-29T05:56:01.091Z,1006.28
2022-12-29T05:57:01.097Z,1006.31
2022-12-29T05:58:01.070Z,1006.32
2022-12-29T05:59:00.887Z,1006.32
2022-12-29T06:00:01.112Z,1006.33
2022-12-29T06:01:01.126Z,1006.25
2022-12-29T06:02:01.295Z,1006.27
2022-12-29T06:03:02.865Z,1006.25
2022-12-29T06:04:04.545Z,1006.2
2022-12-29T06:05:01.176Z,1006.14
2022-12-29T06:06:01.221Z,1006.09
2022-12-29T06:07:01.161Z,1005.99
2022-12-29T06:08:01.263Z,1005.95
2022-12-29T06:09:06.727Z,1005.92
2022-12-29T06:10:01.063Z,1005.92
2022-12-29T06:11:01.072Z,1005.97
2022-12-29T06:12:01.092Z,1005.96
2022-12-29T06:13:01.052Z,1005.91
2022-12-29T06:14:10.268Z,1005.92
2022-12-29T06:15:01.355Z,1005.92
2022-12-29T06:16:01.426Z,1006
2022-12-29T06:17:01.655Z,1006.01
2022-12-29T06:18:02.299Z,1006.06
2022-12-29T06:19:12.898Z,1006.07
2022-12-29T06:20:01.329Z,1006.13
2022-12-29T06:21:01.137Z,1006.12
2022-12-29T06:22:01.181Z,1006.14
2022-12-29T06:23:01.149Z,1006.13
2022-12-29T06:24:15.616Z,1006.12
2022-12-29T06:25:05.385Z,1006.12
2022-12-29T06:26:01.465Z,1006.03
2022-12-29T06:27:01.585Z,1006.02
2022-12-29T06:28:02.063Z,1005.98
2022-12-29T06:29:01.228Z,1006.03
2022-12-29T06:30:01.465Z,1006.01
2022-12-29T06:31:02.644Z,1005.9
2022-12-29T06:32:01.205Z,1005.94
2022-12-29T06:33:01.323Z,1005.96
2022-12-29T06:34:06.495Z,1005.93
2022-12-29T06:35:01.941Z,1005.95
2022-12-29T06:36:01.876Z,1005.89
2022-12-29T06:37:02.407Z,1005.9
2022-12-29T06:38:01.270Z,1005.85
2022-12-29T06:39:02.061Z,1005.8
2022-12-29T06:40:01.314Z,1005.8
2022-12-29T06:41:00.776Z,1005.76
2022-12-29T06:42:00.469Z,1005.82
2022-12-29T06:43:00.184Z,1005.85
2022-12-29T06:43:59.952Z,1005.84
2022-12-29T06:44:59.739Z,1005.85
2022-12-29T06:46:02.365Z,1005.89
2022-12-29T06:47:00.772Z,1005.88
2022-12-29T06:48:00.533Z,1005.89
2022-12-29T06:49:00.225Z,1005.85
2022-12-29T06:49:59.860Z,1005.83
2022-12-29T06:51:01.528Z,1005.86
2022-12-29T06:52:01.286Z,1005.96
2022-12-29T06:53:01.444Z,1005.88
2022-12-29T06:54:01.444Z,1005.97
2022-12-29T06:55:01.045Z,1005.97
2022-12-29T06:56:01.744Z,1005.99
2022-12-29T06:57:01.965Z,1005.88
2022-12-29T06:58:01.331Z,1005.92
2022-12-29T06:59:01.210Z,1005.98
2022-12-29T07:00:01.373Z,1005.91
2022-12-29T07:01:01.199Z,1005.9
2022-12-29T07:02:01.328Z,1005.88
2022-12-29T07:03:01.502Z,1005.85
2022-12-29T07:04:04.104Z,1005.89
2022-12-29T07:05:01.313Z,1005.89
2022-12-29T07:06:01.227Z,1005.87
2022-12-29T07:07:00.987Z,1005.93
2022-12-29T07:08:01.147Z,1005.93
2022-12-29T07:09:01.136Z,1005.97
2022-12-29T07:10:00.781Z,1005.96
2022-12-29T07:11:00.789Z,1005.99
2022-12-29T07:12:00.817Z,1006.03
2022-12-29T07:13:00.562Z,1006
2022-12-29T07:14:02.592Z,1006.05
2022-12-29T07:15:01.759Z,1006.04
2022-12-29T07:16:01.972Z,1006.04
2022-12-29T07:17:01.143Z,1006.1
2022-12-29T07:18:01.104Z,1006.17
2022-12-29T07:19:01.181Z,1006.16
2022-12-29T07:20:01.687Z,1006.13
2022-12-29T07:21:02.229Z,1006.14
2022-12-29T07:22:01.267Z,1006.12
2022-12-29T07:23:02.585Z,1006.14
2022-12-29T07:24:02.189Z,1006.15
2022-12-29T07:25:01.172Z,1006.1
2022-12-29T07:26:01.133Z,1006.24
2022-12-29T07:27:01.569Z,1006.25
2022-12-29T07:28:01.230Z,1006.24
2022-12-29T07:29:01.241Z,1006.29
2022-12-29T07:30:01.170Z,1006.29
2022-12-29T07:31:03.980Z,1006.27
2022-12-29T07:32:01.115Z,1006.29
2022-12-29T07:33:01.083Z,1006.31
2022-12-29T07:34:01.071Z,1006.29
2022-12-29T07:35:01.090Z,1006.3
2022-12-29T07:36:01.118Z,1006.27
2022-12-29T07:37:01.117Z,1006.24
2022-12-29T07:38:01.065Z,1006.22
2022-12-29T07:39:01.210Z,1006.24
2022-12-29T07:40:01.065Z,1006.27
2022-12-29T07:41:01.119Z,1006.29
2022-12-29T07:42:04.811Z,1006.18
2022-12-29T07:43:01.156Z,1006.18
2022-12-29T07:44:01.145Z,1006.15
2022-12-29T07:45:01.148Z,1006.18
2022-12-29T07:46:01.231Z,1006.25
2022-12-29T07:47:01.415Z,1006.2
2022-12-29T07:48:01.229Z,1006.17
2022-12-29T07:49:04.070Z,1006.2
2022-12-29T07:50:04.039Z,1006.19
2022-12-29T07:51:01.448Z,1006.22
2022-12-29T07:52:01.169Z,1006.19
2022-12-29T07:53:01.159Z,1006.21
2022-12-29T07:54:01.497Z,1006.19
2022-12-29T07:55:07.628Z,1006.19
2022-12-29T07:56:01.115Z,1006.19
2022-12-29T07:57:01.147Z,1006.17
2022-12-29T07:58:01.149Z,1006.17
2022-12-29T07:59:01.983Z,1006.15
2022-12-29T08:00:09.851Z,1006.15
2022-12-29T08:01:01.133Z,1006.16
2022-12-29T08:02:01.323Z,1006.14
2022-12-29T08:03:01.982Z,1006.16
2022-12-29T08:04:02.362Z,1006.21
2022-12-29T08:05:13.442Z,1006.24
2022-12-29T08:06:02.073Z,1006.24
2022-12-29T08:07:01.148Z,1006.21
2022-12-29T08:08:00.808Z,1006.23
2022-12-29T08:09:04.245Z,1006.21
2022-12-29T08:10:15.630Z,1006.16
2022-12-29T08:11:01.946Z,1006.1
2022-12-29T08:12:01.234Z,1006.13
2022-12-29T08:13:01.168Z,1006.13
2022-12-29T08:14:00.839Z,1006.16
2022-12-29T08:15:00.611Z,1006.17
2022-12-29T08:16:00.401Z,1006.11
2022-12-29T08:17:00.139Z,1006.13
2022-12-29T08:17:59.932Z,1006.11
2022-12-29T08:18:59.617Z,1006.07
2022-12-29T08:20:01.505Z,1006.06
2022-12-29T08:21:01.250Z,1006.08
2022-12-29T08:22:01.134Z,1006.07
2022-12-29T08:23:01.079Z,1006.1
2022-12-29T08:24:01.161Z,1006.14
2022-12-29T08:25:01.162Z,1006.1
2022-12-29T08:26:01.110Z,1006.13
2022-12-29T08:27:08.358Z,1006.16
2022-12-29T08:28:00.810Z,1006.17
2022-12-29T08:29:00.777Z,1006.14
2022-12-29T08:30:00.369Z,1006.15
2022-12-29T08:31:00.206Z,1006.14
2022-12-29T08:31:59.822Z,1006.16
2022-12-29T08:33:01.767Z,1006.1
2022-12-29T08:34:01.758Z,1006.19
2022-12-29T08:35:01.484Z,1006.17
2022-12-29T08:36:01.919Z,1006.13
2022-12-29T08:37:01.979Z,1006.11
2022-12-29T08:38:01.065Z,1006.15
2022-12-29T08:39:01.151Z,1006.18
2022-12-29T08:40:01.295Z,1006.18
2022-12-29T08:41:01.176Z,1006.19
2022-12-29T08:42:00.506Z,1006.27
2022-12-29T08:43:00.271Z,1006.24
2022-12-29T08:43:59.920Z,1006.29
2022-12-29T08:44:59.736Z,1006.29
2022-12-29T08:46:01.558Z,1006.33
2022-12-29T08:47:01.166Z,1006.35
2022-12-29T08:48:02.055Z,1006.43
2022-12-29T08:49:01.537Z,1006.5
2022-12-29T08:50:01.891Z,1006.4
2022-12-29T08:51:01.466Z,1006.36
2022-12-29T08:52:04.349Z,1006.36
2022-12-29T08:53:01.736Z,1006.32
2022-12-29T08:54:01.117Z,1006.31
2022-12-29T08:55:01.093Z,1006.29
2022-12-29T08:56:04.975Z,1006.33
2022-12-29T08:57:01.498Z,1006.29
2022-12-29T08:58:00.852Z,1006.29
2022-12-29T08:59:01.503Z,1006.34
2022-12-29T09:00:01.496Z,1006.26
2022-12-29T09:01:01.223Z,1006.31
2022-12-29T09:02:01.106Z,1006.27
2022-12-29T09:03:01.798Z,1006.27
2022-12-29T09:04:18.008Z,1006.3
2022-12-29T09:05:01.303Z,1006.28
2022-12-29T09:06:01.147Z,1006.27
2022-12-29T09:07:01.543Z,1006.27
2022-12-29T09:08:00.837Z,1006.3
2022-12-29T09:09:00.546Z,1006.27
2022-12-29T09:10:00.179Z,1006.22
2022-12-29T09:10:59.896Z,1006.15
2022-12-29T09:11:59.541Z,1006.2
2022-12-29T09:13:01.451Z,1006.22
2022-12-29T09:14:01.118Z,1006.23
2022-12-29T09:15:01.196Z,1006.2
2022-12-29T09:16:01.274Z,1006.21
2022-12-29T09:17:04.023Z,1006.19
2022-12-29T09:18:01.624Z,1006.21
2022-12-29T09:19:01.176Z,1006.2
2022-12-29T09:20:01.445Z,1006.19
2022-12-29T09:21:01.142Z,1006.3
2022-12-29T09:22:00.485Z,1006.28
2022-12-29T09:23:00.244Z,1006.23
2022-12-29T09:24:00.279Z,1006.28
2022-12-29T09:25:00.075Z,1006.19
2022-12-29T09:26:01.571Z,1006.2
2022-12-29T09:27:01.273Z,1006.12
2022-12-29T09:28:00.925Z,1006.14
2022-12-29T09:29:01.133Z,1006.14
2022-12-29T09:30:07.938Z,1006.29
2022-12-29T09:31:03.848Z,1006.32
2022-12-29T09:32:01.153Z,1006.31
2022-12-29T09:33:01.495Z,1006.22
2022-12-29T09:34:01.174Z,1006.19
2022-12-29T09:35:01.163Z,1006.23
2022-12-29T09:36:04.034Z,1006.28
2022-12-29T09:37:01.882Z,1006.24
2022-12-29T09:38:01.214Z,1006.27
2022-12-29T09:39:01.205Z,1006.33
2022-12-29T09:40:01.940Z,1006.31
2022-12-29T09:41:06.757Z,1006.25
2022-12-29T09:42:01.055Z,1006.23
2022-12-29T09:43:01.080Z,1006.21
2022-12-29T09:44:01.208Z,1006.29
2022-12-29T09:45:01.749Z,1006.27
2022-12-29T09:46:09.756Z,1006.21
2022-12-29T09:47:02.426Z,1006.3
2022-12-29T09:48:06.694Z,1006.25
2022-12-29T09:49:01.087Z,1006.2
2022-12-29T09:50:02.108Z,1006.21
2022-12-29T09:51:10.995Z,1006.21
2022-12-29T09:52:01.151Z,1006.24
2022-12-29T09:53:01.138Z,1006.14
2022-12-29T09:54:01.170Z,1006.13
2022-12-29T09:55:08.930Z,1006.15
2022-12-29T09:56:13.538Z,1006.17
2022-12-29T09:57:03.243Z,1006.15
2022-12-29T09:58:01.078Z,1006.16
2022-12-29T09:59:01.105Z,1006.14
2022-12-29T10:00:01.309Z,1006.1
2022-12-29T10:01:16.967Z,1006.08
2022-12-29T10:02:02.044Z,1006.1
2022-12-29T10:03:01.352Z,1006.1
2022-12-29T10:04:02.023Z,1006.08
2022-12-29T10:05:02.549Z,1006.11
2022-12-29T10:06:01.178Z,1006.11
2022-12-29T10:07:28.597Z,1006.05
2022-12-29T10:08:01.176Z,1006.09
2022-12-29T10:09:00.648Z,1006.13
2022-12-29T10:10:00.335Z,1006.08
2022-12-29T10:11:00.044Z,1006.04
2022-12-29T10:11:59.699Z,1006.11
2022-12-29T10:13:01.372Z,1006.05
2022-12-29T10:14:02.578Z,1006.05
2022-12-29T10:15:02.054Z,1006.07
2022-12-29T10:16:02.255Z,1006
2022-12-29T10:17:01.499Z,1006.05
2022-12-29T10:18:01.094Z,1005.97
2022-12-29T10:19:01.561Z,1006.02
2022-12-29T10:20:02.039Z,1005.99
2022-12-29T10:21:01.188Z,1005.99
2022-12-29T10:22:01.069Z,1005.96
2022-12-29T10:23:01.126Z,1005.96
2022-12-29T10:24:01.529Z,1006.01
2022-12-29T10:25:01.963Z,1005.92
2022-12-29T10:26:01.533Z,1005.91
2022-12-29T10:27:01.829Z,1005.88
2022-12-29T10:28:01.150Z,1005.81
2022-12-29T10:29:01.253Z,1005.81
2022-12-29T10:30:04.681Z,1005.75
2022-12-29T10:31:08.360Z,1005.78
2022-12-29T10:32:01.297Z,1005.8
2022-12-29T10:33:02.152Z,1005.78
2022-12-29T10:34:01.109Z,1005.75
2022-12-29T10:35:01.112Z,1005.78
2022-12-29T10:36:01.097Z,1005.76
2022-12-29T10:37:01.111Z,1005.81
2022-12-29T10:38:01.132Z,1005.7
2022-12-29T10:39:01.726Z,1005.78
2022-12-29T10:40:01.868Z,1005.63
2022-12-29T10:41:01.432Z,1005.73
2022-12-29T10:42:01.262Z,1005.68
2022-12-29T10:43:01.922Z,1005.73
2022-12-29T10:44:02.478Z,1005.67
2022-12-29T10:45:01.078Z,1005.73
2022-12-29T10:46:01.114Z,1005.77
2022-12-29T10:47:01.127Z,1005.7
2022-12-29T10:48:01.088Z,1005.74
2022-12-29T10:49:00.783Z,1005.7
2022-12-29T10:50:00.347Z,1005.74
2022-12-29T10:51:01.997Z,1005.77
2022-12-29T10:52:01.807Z,1005.79
2022-12-29T10:53:01.209Z,1005.74
2022-12-29T10:54:01.931Z,1005.79
2022-12-29T10:55:01.129Z,1005.73
2022-12-29T10:56:01.058Z,1005.64
2022-12-29T10:57:01.061Z,1005.66
2022-12-29T10:58:01.140Z,1005.58
2022-12-29T10:59:01.059Z,1005.64
2022-12-29T11:00:01.169Z,1005.77
2022-12-29T11:01:01.245Z,1005.74
2022-12-29T11:02:02.565Z,1005.62
2022-12-29T11:03:01.293Z,1005.66
2022-12-29T11:04:04.116Z,1005.57
2022-12-29T11:05:01.113Z,1005.57
2022-12-29T11:06:01.140Z,1005.61
2022-12-29T11:07:01.226Z,1005.62
2022-12-29T11:08:01.107Z,1005.61
2022-12-29T11:09:01.220Z,1005.64
2022-12-29T11:10:01.142Z,1005.57
2022-12-29T11:11:01.308Z,1005.66
2022-12-29T11:12:01.844Z,1005.56
2022-12-29T11:13:01.262Z,1005.65
2022-12-29T11:14:01.130Z,1005.67
2022-12-29T11:15:01.172Z,1005.59
2022-12-29T11:16:01.229Z,1005.63
2022-12-29T11:17:01.211Z,1005.65
2022-12-29T11:18:01.803Z,1005.54
2022-12-29T11:19:02.032Z,1005.64
2022-12-29T11:20:02.438Z,1005.59
2022-12-29T11:21:01.811Z,1005.55
2022-12-29T11:22:01.931Z,1005.55
2022-12-29T11:23:02.259Z,1005.54
2022-12-29T11:24:00.694Z,1005.51
2022-12-29T11:25:00.384Z,1005.52
2022-12-29T11:26:00.082Z,1005.48
2022-12-29T11:27:05.859Z,1005.47
2022-12-29T11:28:01.954Z,1005.53
2022-12-29T11:29:02.455Z,1005.46
2022-12-29T11:30:01.534Z,1005.48
2022-12-29T11:31:01.244Z,1005.42
2022-12-29T11:32:08.996Z,1005.55
2022-12-29T11:33:01.963Z,1005.4
2022-12-29T11:34:01.054Z,1005.52
2022-12-29T11:35:01.178Z,1005.35
2022-12-29T11:36:01.082Z,1005.37
2022-12-29T11:37:11.876Z,1005.31
2022-12-29T11:38:01.142Z,1005.34
2022-12-29T11:39:01.059Z,1005.34
2022-12-29T11:40:01.127Z,1005.25
2022-12-29T11:41:01.924Z,1005.29
2022-12-29T11:42:13.482Z,1005.3
2022-12-29T11:43:01.120Z,1005.37
2022-12-29T11:44:01.887Z,1005.36
2022-12-29T11:45:04.069Z,1005.3
2022-12-29T11:46:01.290Z,1005.35
2022-12-29T11:47:16.314Z,1005.26
2022-12-29T11:48:01.040Z,1005.26
2022-12-29T11:49:01.157Z,1005.3
2022-12-29T11:50:01.194Z,1005.3
2022-12-29T11:51:01.095Z,1005.35
2022-12-29T11:52:01.068Z,1005.32
2022-12-29T11:53:01.130Z,1005.3
2022-12-29T11:54:01.809Z,1005.32
2022-12-29T11:55:04.292Z,1005.36
2022-12-29T11:56:02.099Z,1005.32
2022-12-29T11:57:01.057Z,1005.35
2022-12-29T11:58:01.119Z,1005.36
2022-12-29T11:59:01.163Z,1005.36
2022-12-29T12:00:01.182Z,1005.3
2022-12-29T12:01:01.963Z,1005.28
2022-12-29T12:02:01.448Z,1005.27
2022-12-29T12:03:02.159Z,1005.26
2022-12-29T12:04:01.200Z,1005.24
2022-12-29T12:05:02.017Z,1005.28
2022-12-29T12:06:01.330Z,1005.25
2022-12-29T12:07:01.980Z,1005.22
2022-12-29T12:08:04.432Z,1005.26